sensor_id;sensor_type;location;lat;lon;timestamp;pressure;altitude;pressure_sealevel;temperature;humidity
71970;BME280;59838;52.152;5.436;2024-02-16T00:02:00;101014.88;;;10.15;100.00
71970;BME280;59838;52.152;5.436;2024-02-16T00:04:27;101017.03;;;10.11;100.00
71970;BME280;59838;52.152;5.436;2024-02-16T00:06:54;101024.63;;;10.13;100.00
71970;BME280;59838;52.152;5.436;2024-02-16T00:09:20;101016.19;;;10.11;100.00
71970;BME280;59838;52.152;5.436;2024-02-16T00:11:47;101012.19;;;10.08;100.00
71970;BME280;59838;52.152;5.436;2024-02-16T00:14:16;101014.16;;;10.06;100.00
71970;BME280;59838;52.152;5.436;2024-02-16T00:16:43;101016.25;;;10.02;100.00
71970;BME280;59838;52.152;5.436;2024-02-16T00:19:09;101011.25;;;10.01;100.00
71970;BME280;59838;52.152;5.436;2024-02-16T00:21:36;101010.44;;;10.00;100.00
71970;BME280;59838;52.152;5.436;2024-02-16T00:24:03;101016.44;;;10.01;100.00
71970;BME280;59838;52.152;5.436;2024-02-16T00:26:30;101007.22;;;9.98;100.00
71970;BME280;59838;52.152;5.436;2024-02-16T00:28:56;101007.41;;;9.97;100.00
71970;BME280;59838;52.152;5.436;2024-02-16T00:31:24;101002.38;;;9.95;100.00
71970;BME280;59838;52.152;5.436;2024-02-16T00:33:50;101003.34;;;9.94;100.00
71970;BME280;59838;52.152;5.436;2024-02-16T00:36:17;101008.88;;;9.91;100.00
71970;BME280;59838;52.152;5.436;2024-02-16T00:38:44;101005.50;;;9.91;100.00
71970;BME280;59838;52.152;5.436;2024-02-16T00:41:19;101008.25;;;9.89;100.00
71970;BME280;59838;52.152;5.436;2024-02-16T00:43:47;101000.81;;;9.86;100.00
71970;BME280;59838;52.152;5.436;2024-02-16T00:46:13;101003.25;;;9.87;100.00
71970;BME280;59838;52.152;5.436;2024-02-16T00:48:40;101004.25;;;9.86;100.00
71970;BME280;59838;52.152;5.436;2024-02-16T00:51:07;100998.88;;;9.88;100.00
71970;BME280;59838;52.152;5.436;2024-02-16T00:53:33;100993.03;;;9.86;100.00
71970;BME280;59838;52.152;5.436;2024-02-16T00:56:00;100998.06;;;9.87;100.00
71970;BME280;59838;52.152;5.436;2024-02-16T00:58:26;100995.47;;;9.87;100.00
71970;BME280;59838;52.152;5.436;2024-02-16T01:00:53;100993.69;;;9.88;100.00
71970;BME280;59838;52.152;5.436;2024-02-16T01:03:19;100997.59;;;9.84;100.00
71970;BME280;59838;52.152;5.436;2024-02-16T01:05:46;100990.16;;;9.81;100.00
71970;BME280;59838;52.152;5.436;2024-02-16T01:08:12;100993.72;;;9.80;100.00
71970;BME280;59838;52.152;5.436;2024-02-16T01:10:39;100995.69;;;9.78;100.00
71970;BME280;59838;52.152;5.436;2024-02-16T01:13:05;100983.88;;;9.75;100.00
71970;BME280;59838;52.152;5.436;2024-02-16T01:15:32;100985.03;;;9.73;100.00
71970;BME280;59838;52.152;5.436;2024-02-16T01:17:58;100984.41;;;9.70;100.00
71970;BME280;59838;52.152;5.436;2024-02-16T01:20:28;100986.16;;;9.70;100.00
71970;BME280;59838;52.152;5.436;2024-02-16T01:22:57;100976.13;;;9.67;100.00
71970;BME280;59838;52.152;5.436;2024-02-16T01:25:24;100972.75;;;9.66;100.00
71970;BME280;59838;52.152;5.436;2024-02-16T01:27:50;100966.59;;;9.67;100.00
71970;BME280;59838;52.152;5.436;2024-02-16T01:30:18;100973.75;;;9.65;100.00
71970;BME280;59838;52.152;5.436;2024-02-16T01:32:46;100972.91;;;9.65;100.00
71970;BME280;59838;52.152;5.436;2024-02-16T01:35:13;100973.91;;;9.64;100.00
71970;BME280;59838;52.152;5.436;2024-02-16T01:37:43;100967.09;;;9.63;100.00
71970;BME280;59838;52.152;5.436;2024-02-16T01:40:10;100967.28;;;9.61;100.00
71970;BME280;59838;52.152;5.436;2024-02-16T01:42:43;100967.63;;;9.58;100.00
71970;BME280;59838;52.152;5.436;2024-02-16T01:45:10;100966.81;;;9.58;100.00
71970;BME280;59838;52.152;5.436;2024-02-16T01:47:41;100959.38;;;9.55;100.00
71970;BME280;59838;52.152;5.436;2024-02-16T01:50:09;100971.53;;;9.54;100.00
71970;BME280;59838;52.152;5.436;2024-02-16T01:52:36;100962.47;;;9.50;100.00
71970;BME280;59838;52.152;5.436;2024-02-16T01:55:04;100955.84;;;9.47;100.00
71970;BME280;59838;52.152;5.436;2024-02-16T01:57:32;100968.34;;;9.44;100.00
71970;BME280;59838;52.152;5.436;2024-02-16T01:59:58;100967.53;;;9.43;100.00
71970;BME280;59838;52.152;5.436;2024-02-16T02:02:26;100965.91;;;9.42;100.00
71970;BME280;59838;52.152;5.436;2024-02-16T02:04:52;100959.94;;;9.42;100.00
71970;BME280;59838;52.152;5.436;2024-02-16T02:07:25;100954.13;;;9.40;100.00
71970;BME280;59838;52.152;5.436;2024-02-16T02:09:53;100948.28;;;9.38;100.00
71970;BME280;59838;52.152;5.436;2024-02-16T02:12:20;100945.53;;;9.39;100.00
71970;BME280;59838;52.152;5.436;2024-02-16T02:14:46;100941.97;;;9.40;100.00
71970;BME280;59838;52.152;5.436;2024-02-16T02:17:13;100935.97;;;9.40;100.00
71970;BME280;59838;52.152;5.436;2024-02-16T02:19:40;100937.56;;;9.41;100.00
71970;BME280;59838;52.152;5.436;2024-02-16T02:22:19;100945.00;;;9.44;100.00
71970;BME280;59838;52.152;5.436;2024-02-16T02:24:47;100947.44;;;9.45;100.00
71970;BME280;59838;52.152;5.436;2024-02-16T02:27:15;100947.09;;;9.48;100.00
71970;BME280;59838;52.152;5.436;2024-02-16T02:29:42;100953.06;;;9.49;100.00
71970;BME280;59838;52.152;5.436;2024-02-16T02:32:08;100948.72;;;9.49;100.00
71970;BME280;59838;52.152;5.436;2024-02-16T02:34:36;100949.34;;;9.51;100.00
71970;BME280;59838;52.152;5.436;2024-02-16T02:37:05;100949.16;;;9.53;100.00
71970;BME280;59838;52.152;5.436;2024-02-16T02:39:32;100951.59;;;9.55;100.00
71970;BME280;59838;52.152;5.436;2024-02-16T02:41:59;100937.81;;;9.54;100.00
71970;BME280;59838;52.152;5.436;2024-02-16T02:44:26;100941.22;;;9.55;100.00
71970;BME280;59838;52.152;5.436;2024-02-16T02:46:52;100928.25;;;9.55;100.00
71970;BME280;59838;52.152;5.436;2024-02-16T02:49:19;100924.69;;;9.56;100.00
71970;BME280;59838;52.152;5.436;2024-02-16T02:51:46;100921.25;;;9.55;100.00
71970;BME280;59838;52.152;5.436;2024-02-16T02:54:12;100919.50;;;9.56;100.00
71970;BME280;59838;52.152;5.436;2024-02-16T02:56:39;100918.34;;;9.58;100.00
71970;BME280;59838;52.152;5.436;2024-02-16T02:59:05;100925.31;;;9.58;100.00
71970;BME280;59838;52.152;5.436;2024-02-16T03:01:32;100908.75;;;9.59;100.00
71970;BME280;59838;52.152;5.436;2024-02-16T03:03:59;100912.00;;;9.61;100.00
71970;BME280;59838;52.152;5.436;2024-02-16T03:06:26;100908.41;;;9.62;100.00
71970;BME280;59838;52.152;5.436;2024-02-16T03:08:53;100905.63;;;9.63;100.00
71970;BME280;59838;52.152;5.436;2024-02-16T03:11:21;100911.81;;;9.62;100.00
71970;BME280;59838;52.152;5.436;2024-02-16T03:13:47;100909.84;;;9.64;100.00
71970;BME280;59838;52.152;5.436;2024-02-16T03:16:14;100906.81;;;9.61;100.00
71970;BME280;59838;52.152;5.436;2024-02-16T03:18:40;100901.78;;;9.59;100.00
71970;BME280;59838;52.152;5.436;2024-02-16T03:21:07;100908.94;;;9.57;100.00
71970;BME280;59838;52.152;5.436;2024-02-16T03:23:34;100907.50;;;9.55;100.00
71970;BME280;59838;52.152;5.436;2024-02-16T03:26:00;100904.63;;;9.49;100.00
71970;BME280;59838;52.152;5.436;2024-02-16T03:28:27;100903.97;;;9.47;100.00
71970;BME280;59838;52.152;5.436;2024-02-16T03:30:53;100910.16;;;9.46;100.00
71970;BME280;59838;52.152;5.436;2024-02-16T03:33:20;100907.75;;;9.45;100.00
71970;BME280;59838;52.152;5.436;2024-02-16T03:35:47;100907.28;;;9.41;100.00
71970;BME280;59838;52.152;5.436;2024-02-16T03:38:14;100906.63;;;9.39;100.00
71970;BME280;59838;52.152;5.436;2024-02-16T03:40:41;100904.19;;;9.38;100.00
71970;BME280;59838;52.152;5.436;2024-02-16T03:43:07;100914.56;;;9.38;100.00
71970;BME280;59838;52.152;5.436;2024-02-16T03:45:33;100906.16;;;9.36;100.00
71970;BME280;59838;52.152;5.436;2024-02-16T03:48:00;100907.16;;;9.35;100.00
71970;BME280;59838;52.152;5.436;2024-02-16T03:50:27;100899.72;;;9.31;100.00
71970;BME280;59838;52.152;5.436;2024-02-16T03:52:53;100910.91;;;9.32;100.00
71970;BME280;59838;52.152;5.436;2024-02-16T03:55:20;100899.56;;;9.33;100.00
71970;BME280;59838;52.152;5.436;2024-02-16T03:57:46;100911.69;;;9.32;100.00
71970;BME280;59838;52.152;5.436;2024-02-16T04:00:13;100901.16;;;9.34;100.00
71970;BME280;59838;52.152;5.436;2024-02-16T04:02:40;100898.09;;;9.30;100.00
71970;BME280;59838;52.152;5.436;2024-02-16T04:05:07;100897.81;;;9.25;100.00
71970;BME280;59838;52.152;5.436;2024-02-16T04:07:35;100907.56;;;9.23;100.00
71970;BME280;59838;52.152;5.436;2024-02-16T04:10:01;100904.78;;;9.25;100.00
71970;BME280;59838;52.152;5.436;2024-02-16T04:12:28;100905.44;;;9.27;100.00
71970;BME280;59838;52.152;5.436;2024-02-16T04:14:54;100904.97;;;9.23;100.00
71970;BME280;59838;52.152;5.436;2024-02-16T04:17:21;100922.75;;;9.26;100.00
71970;BME280;59838;52.152;5.436;2024-02-16T04:19:47;100913.22;;;9.27;100.00
71970;BME280;59838;52.152;5.436;2024-02-16T04:22:14;100919.97;;;9.28;100.00
71970;BME280;59838;52.152;5.436;2024-02-16T04:24:40;100914.81;;;9.28;100.00
71970;BME280;59838;52.152;5.436;2024-02-16T04:27:07;100907.56;;;9.23;100.00
71970;BME280;59838;52.152;5.436;2024-02-16T04:29:34;100906.28;;;9.19;100.00
71970;BME280;59838;52.152;5.436;2024-02-16T04:32:01;100904.03;;;9.16;100.00
71970;BME280;59838;52.152;5.436;2024-02-16T04:34:27;100906.97;;;9.13;100.00
71970;BME280;59838;52.152;5.436;2024-02-16T04:36:55;100909.22;;;9.16;100.00
71970;BME280;59838;52.152;5.436;2024-02-16T04:39:21;100895.78;;;9.12;100.00
71970;BME280;59838;52.152;5.436;2024-02-16T04:41:49;100894.34;;;9.10;100.00
71970;BME280;59838;52.152;5.436;2024-02-16T04:44:18;100893.88;;;9.06;100.00
71970;BME280;59838;52.152;5.436;2024-02-16T04:46:44;100917.03;;;9.08;100.00
71970;BME280;59838;52.152;5.436;2024-02-16T04:49:11;100902.94;;;9.10;100.00
71970;BME280;59838;52.152;5.436;2024-02-16T04:51:37;100908.25;;;9.17;100.00
71970;BME280;59838;52.152;5.436;2024-02-16T04:54:06;100908.88;;;9.19;100.00
71970;BME280;59838;52.152;5.436;2024-02-16T04:56:33;100910.63;;;9.27;100.00
71970;BME280;59838;52.152;5.436;2024-02-16T04:58:59;100910.28;;;9.30;100.00
71970;BME280;59838;52.152;5.436;2024-02-16T05:01:26;100903.28;;;9.30;100.00
71970;BME280;59838;52.152;5.436;2024-02-16T05:03:55;100905.53;;;9.33;100.00
71970;BME280;59838;52.152;5.436;2024-02-16T05:06:21;100912.16;;;9.36;100.00
71970;BME280;59838;52.152;5.436;2024-02-16T05:08:49;100908.25;;;9.40;100.00
71970;BME280;59838;52.152;5.436;2024-02-16T05:11:16;100910.84;;;9.40;100.00
71970;BME280;59838;52.152;5.436;2024-02-16T05:13:43;100914.06;;;9.42;100.00
71970;BME280;59838;52.152;5.436;2024-02-16T05:16:10;100908.06;;;9.42;100.00
71970;BME280;59838;52.152;5.436;2024-02-16T05:18:37;100909.69;;;9.43;100.00
71970;BME280;59838;52.152;5.436;2024-02-16T05:21:04;100900.94;;;9.44;100.00
71970;BME280;59838;52.152;5.436;2024-02-16T05:23:31;100903.53;;;9.44;100.00
71970;BME280;59838;52.152;5.436;2024-02-16T05:25:57;100898.34;;;9.44;100.00
71970;BME280;59838;52.152;5.436;2024-02-16T05:28:24;100892.97;;;9.45;100.00
71970;BME280;59838;52.152;5.436;2024-02-16T05:30:50;100891.00;;;9.47;100.00
71970;BME280;59838;52.152;5.436;2024-02-16T05:33:17;100885.66;;;9.49;100.00
71970;BME280;59838;52.152;5.436;2024-02-16T05:35:43;100886.13;;;9.52;100.00
71970;BME280;59838;52.152;5.436;2024-02-16T05:38:11;100895.34;;;9.55;100.00
71970;BME280;59838;52.152;5.436;2024-02-16T05:40:47;100888.81;;;9.59;100.00
71970;BME280;59838;52.152;5.436;2024-02-16T05:43:20;100886.25;;;9.59;100.00
71970;BME280;59838;52.152;5.436;2024-02-16T05:45:46;100889.44;;;9.61;100.00
71970;BME280;59838;52.152;5.436;2024-02-16T05:48:13;100898.84;;;9.62;100.00
71970;BME280;59838;52.152;5.436;2024-02-16T05:50:40;100892.66;;;9.63;100.00
71970;BME280;59838;52.152;5.436;2024-02-16T05:53:07;100887.13;;;9.66;100.00
71970;BME280;59838;52.152;5.436;2024-02-16T05:55:36;100886.97;;;9.68;100.00
71970;BME280;59838;52.152;5.436;2024-02-16T05:58:03;100896.03;;;9.72;100.00
71970;BME280;59838;52.152;5.436;2024-02-16T06:00:34;100896.03;;;9.72;100.00
71970;BME280;59838;52.152;5.436;2024-02-16T06:03:03;100894.84;;;9.75;100.00
71970;BME280;59838;52.152;5.436;2024-02-16T06:05:29;100898.28;;;9.75;100.00
71970;BME280;59838;52.152;5.436;2024-02-16T06:07:56;100894.50;;;9.78;100.00
71970;BME280;59838;52.152;5.436;2024-02-16T06:10:23;100905.06;;;9.76;100.00
71970;BME280;59838;52.152;5.436;2024-02-16T06:12:50;100900.03;;;9.75;100.00
71970;BME280;59838;52.152;5.436;2024-02-16T06:15:16;100898.44;;;9.74;100.00
71970;BME280;59838;52.152;5.436;2024-02-16T06:17:43;100894.22;;;9.73;100.00
71970;BME280;59838;52.152;5.436;2024-02-16T06:20:10;100904.59;;;9.73;100.00
71970;BME280;59838;52.152;5.436;2024-02-16T06:22:37;100909.78;;;9.73;100.00
71970;BME280;59838;52.152;5.436;2024-02-16T06:25:04;100920.97;;;9.73;100.00
71970;BME280;59838;52.152;5.436;2024-02-16T06:27:31;100925.97;;;9.75;100.00
71970;BME280;59838;52.152;5.436;2024-02-16T06:29:59;100924.50;;;9.80;100.00
71970;BME280;59838;52.152;5.436;2024-02-16T06:32:26;100933.53;;;9.84;100.00
71970;BME280;59838;52.152;5.436;2024-02-16T06:34:52;100934.00;;;9.88;100.00
71970;BME280;59838;52.152;5.436;2024-02-16T06:37:19;100932.22;;;9.88;100.00
71970;BME280;59838;52.152;5.436;2024-02-16T06:39:46;100937.84;;;9.92;100.00
71970;BME280;59838;52.152;5.436;2024-02-16T06:42:13;100943.84;;;9.93;100.00
71970;BME280;59838;52.152;5.436;2024-02-16T06:44:40;100940.25;;;9.94;100.00
71970;BME280;59838;52.152;5.436;2024-02-16T06:47:07;100948.84;;;9.94;100.00
71970;BME280;59838;52.152;5.436;2024-02-16T06:49:33;100948.06;;;9.94;100.00
71970;BME280;59838;52.152;5.436;2024-02-16T06:52:00;100951.44;;;9.94;100.00
71970;BME280;59838;52.152;5.436;2024-02-16T06:54:26;100952.44;;;9.93;100.00
71970;BME280;59838;52.152;5.436;2024-02-16T06:56:53;100955.03;;;9.93;100.00
71970;BME280;59838;52.152;5.436;2024-02-16T06:59:19;100955.84;;;9.94;100.00
71970;BME280;59838;52.152;5.436;2024-02-16T07:01:46;100957.47;;;9.95;100.00
71970;BME280;59838;52.152;5.436;2024-02-16T07:04:13;100963.28;;;9.97;100.00
71970;BME280;59838;52.152;5.436;2024-02-16T07:06:39;100958.72;;;9.99;100.00
71970;BME280;59838;52.152;5.436;2024-02-16T07:09:07;100958.53;;;10.00;100.00
71970;BME280;59838;52.152;5.436;2024-02-16T07:11:34;100962.75;;;10.01;100.00
71970;BME280;59838;52.152;5.436;2024-02-16T07:14:01;100969.53;;;10.02;100.00
71970;BME280;59838;52.152;5.436;2024-02-16T07:16:28;100973.59;;;10.05;100.00
71970;BME280;59838;52.152;5.436;2024-02-16T07:18:55;100973.41;;;10.06;100.00
71970;BME280;59838;52.152;5.436;2024-02-16T07:21:21;100984.44;;;10.09;100.00
71970;BME280;59838;52.152;5.436;2024-02-16T07:23:49;100989.25;;;10.12;100.00
71970;BME280;59838;52.152;5.436;2024-02-16T07:26:17;100980.34;;;10.14;100.00
71970;BME280;59838;52.152;5.436;2024-02-16T07:28:44;100985.53;;;10.14;100.00
71970;BME280;59838;52.152;5.436;2024-02-16T07:31:11;100991.34;;;10.16;100.00
71970;BME280;59838;52.152;5.436;2024-02-16T07:33:38;100986.16;;;10.16;100.00
71970;BME280;59838;52.152;5.436;2024-02-16T07:36:05;100992.78;;;10.19;100.00
71970;BME280;59838;52.152;5.436;2024-02-16T07:38:31;100989.19;;;10.20;100.00
71970;BME280;59838;52.152;5.436;2024-02-16T07:40:58;100995.00;;;10.22;100.00
71970;BME280;59838;52.152;5.436;2024-02-16T07:43:27;100995.66;;;10.24;100.00
71970;BME280;59838;52.152;5.436;2024-02-16T07:45:53;100999.06;;;10.24;100.00
71970;BME280;59838;52.152;5.436;2024-02-16T07:48:21;101008.28;;;10.27;100.00
71970;BME280;59838;52.152;5.436;2024-02-16T07:50:48;101010.34;;;10.32;100.00
71970;BME280;59838;52.152;5.436;2024-02-16T07:53:17;101014.59;;;10.33;100.00
71970;BME280;59838;52.152;5.436;2024-02-16T07:55:44;101015.03;;;10.36;100.00
71970;BME280;59838;52.152;5.436;2024-02-16T07:58:10;101008.06;;;10.37;100.00
71970;BME280;59838;52.152;5.436;2024-02-16T08:00:38;101025.06;;;10.39;100.00
71970;BME280;59838;52.152;5.436;2024-02-16T08:03:05;101028.34;;;10.41;100.00
71970;BME280;59838;52.152;5.436;2024-02-16T08:05:31;101020.16;;;10.45;100.00
71970;BME280;59838;52.152;5.436;2024-02-16T08:07:58;101031.81;;;10.49;100.00
71970;BME280;59838;52.152;5.436;2024-02-16T08:10:24;101039.09;;;10.53;100.00
71970;BME280;59838;52.152;5.436;2024-02-16T08:12:51;101043.59;;;10.59;100.00
71970;BME280;59838;52.152;5.436;2024-02-16T08:15:19;101041.44;;;10.63;100.00
71970;BME280;59838;52.152;5.436;2024-02-16T08:17:51;101041.69;;;10.68;100.00
71970;BME280;59838;52.152;5.436;2024-02-16T08:20:18;101041.63;;;10.76;100.00
71970;BME280;59838;52.152;5.436;2024-02-16T08:22:45;101047.91;;;10.82;100.00
71970;BME280;59838;52.152;5.436;2024-02-16T08:25:11;101045.22;;;10.90;100.00
71970;BME280;59838;52.152;5.436;2024-02-16T08:27:38;101051.13;;;10.99;100.00
71970;BME280;59838;52.152;5.436;2024-02-16T08:30:05;101051.47;;;11.11;100.00
71970;BME280;59838;52.152;5.436;2024-02-16T08:32:32;101053.78;;;11.21;100.00
71970;BME280;59838;52.152;5.436;2024-02-16T08:34:59;101066.97;;;11.34;100.00
71970;BME280;59838;52.152;5.436;2024-02-16T08:37:25;101058.06;;;11.43;100.00
71970;BME280;59838;52.152;5.436;2024-02-16T08:39:52;101051.41;;;11.56;100.00
71970;BME280;59838;52.152;5.436;2024-02-16T08:42:19;101060.38;;;11.68;100.00
71970;BME280;59838;52.152;5.436;2024-02-16T08:44:45;101061.84;;;11.77;100.00
71970;BME280;59838;52.152;5.436;2024-02-16T08:47:12;101060.75;;;11.86;100.00
71970;BME280;59838;52.152;5.436;2024-02-16T08:49:39;101067.28;;;11.97;100.00
71970;BME280;59838;52.152;5.436;2024-02-16T08:52:06;101062.38;;;12.09;100.00
71970;BME280;59838;52.152;5.436;2024-02-16T08:54:32;101057.84;;;12.18;100.00
71970;BME280;59838;52.152;5.436;2024-02-16T08:56:59;101059.69;;;12.24;100.00
71970;BME280;59838;52.152;5.436;2024-02-16T08:59:26;101064.16;;;12.30;100.00
71970;BME280;59838;52.152;5.436;2024-02-16T09:01:54;101076.25;;;12.38;100.00
71970;BME280;59838;52.152;5.436;2024-02-16T09:04:21;101074.91;;;12.49;100.00
71970;BME280;59838;52.152;5.436;2024-02-16T09:06:47;101080.03;;;12.57;100.00
71970;BME280;59838;52.152;5.436;2024-02-16T09:09:15;101081.25;;;12.61;100.00
71970;BME280;59838;52.152;5.436;2024-02-16T09:11:42;101086.44;;;12.61;100.00
71970;BME280;59838;52.152;5.436;2024-02-16T09:14:08;101094.47;;;12.59;100.00
71970;BME280;59838;52.152;5.436;2024-02-16T09:16:35;101094.84;;;12.56;100.00
71970;BME280;59838;52.152;5.436;2024-02-16T09:19:01;101101.81;;;12.49;100.00
71970;BME280;59838;52.152;5.436;2024-02-16T09:21:28;101099.16;;;12.42;100.00
71970;BME280;59838;52.152;5.436;2024-02-16T09:23:56;101098.47;;;12.34;100.00
71970;BME280;59838;52.152;5.436;2024-02-16T09:26:28;101118.44;;;12.27;100.00
71970;BME280;59838;52.152;5.436;2024-02-16T09:29:00;101130.59;;;12.19;100.00
71970;BME280;59838;52.152;5.436;2024-02-16T09:31:26;101138.53;;;12.11;100.00
71970;BME280;59838;52.152;5.436;2024-02-16T09:33:53;101140.88;;;12.06;100.00
71970;BME280;59838;52.152;5.436;2024-02-16T09:36:20;101136.66;;;12.05;100.00
71970;BME280;59838;52.152;5.436;2024-02-16T09:38:47;101162.88;;;12.03;100.00
71970;BME280;59838;52.152;5.436;2024-02-16T09:41:14;101158.50;;;12.04;100.00
71970;BME280;59838;52.152;5.436;2024-02-16T09:43:42;101159.91;;;12.06;100.00
71970;BME280;59838;52.152;5.436;2024-02-16T09:46:09;101168.19;;;12.10;100.00
71970;BME280;59838;52.152;5.436;2024-02-16T09:48:36;101170.03;;;12.16;100.00
71970;BME280;59838;52.152;5.436;2024-02-16T09:51:03;101170.31;;;12.21;100.00
71970;BME280;59838;52.152;5.436;2024-02-16T09:53:31;101184.19;;;12.29;100.00
71970;BME280;59838;52.152;5.436;2024-02-16T09:55:58;101184.44;;;12.34;100.00
71970;BME280;59838;52.152;5.436;2024-02-16T09:58:24;101191.88;;;12.37;100.00
71970;BME280;59838;52.152;5.436;2024-02-16T10:00:53;101190.91;;;12.38;100.00
71970;BME280;59838;52.152;5.436;2024-02-16T10:03:29;101196.91;;;12.38;100.00
71970;BME280;59838;52.152;5.436;2024-02-16T10:06:06;101200.69;;;12.36;100.00
71970;BME280;59838;52.152;5.436;2024-02-16T10:08:46;101201.25;;;12.31;100.00
71970;BME280;59838;52.152;5.436;2024-02-16T10:11:14;101204.59;;;12.25;100.00
71970;BME280;59838;52.152;5.436;2024-02-16T10:13:41;101201.75;;;12.20;100.00
71970;BME280;59838;52.152;5.436;2024-02-16T10:16:09;101211.69;;;12.16;100.00
71970;BME280;59838;52.152;5.436;2024-02-16T10:18:36;101222.69;;;12.12;100.00
71970;BME280;59838;52.152;5.436;2024-02-16T10:21:04;101221.44;;;12.07;100.00
71970;BME280;59838;52.152;5.436;2024-02-16T10:23:31;101223.78;;;12.02;100.00
71970;BME280;59838;52.152;5.436;2024-02-16T10:26:00;101222.50;;;11.98;100.00
71970;BME280;59838;52.152;5.436;2024-02-16T10:28:28;101232.31;;;11.96;100.00
71970;BME280;59838;52.152;5.436;2024-02-16T10:30:58;101239.31;;;11.96;100.00
71970;BME280;59838;52.152;5.436;2024-02-16T10:33:32;101245.22;;;11.89;100.00
71970;BME280;59838;52.152;5.436;2024-02-16T10:35:59;101245.03;;;11.91;100.00
71970;BME280;59838;52.152;5.436;2024-02-16T10:38:29;101249.44;;;11.91;100.00
71970;BME280;59838;52.152;5.436;2024-02-16T10:40:57;101260.03;;;11.89;100.00
71970;BME280;59838;52.152;5.436;2024-02-16T10:43:28;101257.63;;;11.87;100.00
71970;BME280;59838;52.152;5.436;2024-02-16T10:45:56;101269.97;;;11.85;100.00
71970;BME280;59838;52.152;5.436;2024-02-16T10:48:23;101278.81;;;11.84;100.00
71970;BME280;59838;52.152;5.436;2024-02-16T10:50:51;101285.16;;;11.82;100.00
71970;BME280;59838;52.152;5.436;2024-02-16T10:53:24;101301.13;;;11.79;100.00
71970;BME280;59838;52.152;5.436;2024-02-16T10:55:51;101300.88;;;11.74;100.00
71970;BME280;59838;52.152;5.436;2024-02-16T10:58:18;101286.88;;;11.75;100.00
71970;BME280;59838;52.152;5.436;2024-02-16T11:00:52;101301.78;;;11.81;100.00
71970;BME280;59838;52.152;5.436;2024-02-16T11:03:27;101309.13;;;11.77;100.00
71970;BME280;59838;52.152;5.436;2024-02-16T11:05:55;101317.28;;;11.74;100.00
71970;BME280;59838;52.152;5.436;2024-02-16T11:08:24;101320.25;;;11.71;100.00
71970;BME280;59838;52.152;5.436;2024-02-16T11:11:01;101318.81;;;11.68;100.00
71970;BME280;59838;52.152;5.436;2024-02-16T11:13:35;101315.59;;;11.66;100.00
71970;BME280;59838;52.152;5.436;2024-02-16T11:16:06;101315.25;;;11.69;100.00
71970;BME280;59838;52.152;5.436;2024-02-16T11:18:38;101324.28;;;11.74;100.00
71970;BME280;59838;52.152;5.436;2024-02-16T11:21:06;101318.91;;;11.75;100.00
71970;BME280;59838;52.152;5.436;2024-02-16T11:23:35;101316.13;;;11.77;100.00
71970;BME280;59838;52.152;5.436;2024-02-16T11:26:03;101317.59;;;11.79;100.00
71970;BME280;59838;52.152;5.436;2024-02-16T11:28:32;101320.00;;;11.81;100.00
71970;BME280;59838;52.152;5.436;2024-02-16T11:30:59;101324.81;;;11.84;100.00
71970;BME280;59838;52.152;5.436;2024-02-16T11:33:28;101338.69;;;11.84;100.00
71970;BME280;59838;52.152;5.436;2024-02-16T11:36:00;101346.03;;;11.81;100.00
71970;BME280;59838;52.152;5.436;2024-02-16T11:38:27;101334.97;;;11.79;100.00
71970;BME280;59838;52.152;5.436;2024-02-16T11:40:54;101347.81;;;11.80;100.00
71970;BME280;59838;52.152;5.436;2024-02-16T11:43:21;101347.19;;;11.78;100.00
71970;BME280;59838;52.152;5.436;2024-02-16T11:45:49;101354.56;;;11.75;100.00
71970;BME280;59838;52.152;5.436;2024-02-16T11:48:20;101345.91;;;11.74;100.00
71970;BME280;59838;52.152;5.436;2024-02-16T11:50:48;101359.09;;;11.73;100.00
71970;BME280;59838;52.152;5.436;2024-02-16T11:53:18;101350.31;;;11.74;100.00
71970;BME280;59838;52.152;5.436;2024-02-16T11:55:50;101353.56;;;11.76;100.00
71970;BME280;59838;52.152;5.436;2024-02-16T11:58:17;101372.59;;;11.76;100.00
71970;BME280;59838;52.152;5.436;2024-02-16T12:00:46;101384.34;;;11.72;100.00
71970;BME280;59838;52.152;5.436;2024-02-16T12:03:20;101386.94;;;11.72;100.00
71970;BME280;59838;52.152;5.436;2024-02-16T12:05:57;101389.88;;;11.69;100.00
71970;BME280;59838;52.152;5.436;2024-02-16T12:08:32;101397.69;;;11.69;100.00
71970;BME280;59838;52.152;5.436;2024-02-16T12:11:00;101402.91;;;11.69;100.00
71970;BME280;59838;52.152;5.436;2024-02-16T12:13:28;101415.91;;;11.69;100.00
71970;BME280;59838;52.152;5.436;2024-02-16T12:15:55;101415.13;;;11.68;100.00
71970;BME280;59838;52.152;5.436;2024-02-16T12:18:27;101412.34;;;11.70;100.00
71970;BME280;59838;52.152;5.436;2024-02-16T12:21:07;101412.00;;;11.73;100.00
71970;BME280;59838;52.152;5.436;2024-02-16T12:23:36;101419.81;;;11.73;100.00
71970;BME280;59838;52.152;5.436;2024-02-16T12:26:03;101422.75;;;11.70;100.00
71970;BME280;59838;52.152;5.436;2024-02-16T12:28:30;101434.31;;;11.67;100.00
71970;BME280;59838;52.152;5.436;2024-02-16T12:31:01;101442.47;;;11.64;100.00
71970;BME280;59838;52.152;5.436;2024-02-16T12:33:30;101445.91;;;11.65;100.00
71970;BME280;59838;52.152;5.436;2024-02-16T12:35:56;101448.16;;;11.68;100.00
71970;BME280;59838;52.152;5.436;2024-02-16T12:38:23;101440.41;;;11.60;100.00
71970;BME280;59838;52.152;5.436;2024-02-16T12:40:50;101449.72;;;11.54;100.00
71970;BME280;59838;52.152;5.436;2024-02-16T12:43:16;101459.66;;;11.50;100.00
71970;BME280;59838;52.152;5.436;2024-02-16T12:45:43;101462.59;;;11.47;100.00
71970;BME280;59838;52.152;5.436;2024-02-16T12:48:09;101468.59;;;11.48;100.00